메인 페이지
METAR-TAF:

METAR-TAF

공항 :

상조제두히우프레투, 상파울루, 브라질

위도: 20-48-58S, 경도: 049-24-17W, 고도: 543m

현재 날씨관측

예보는 57분 전, 00:00시(UTC)에 발표되었습니다.
무풍
온도 25°C
습도 74%
기압 1014 hPa
시정 10km 이상
고도 4000ft 상공 구름 보통

METAR: SBSR 030000Z 00000KT 9999 SCT040 25/20 Q1014

시각: 21:57 (00:57 UTC)


TAF: 누락

4,000개 이상의 공항 관측 자료 및 예보 (METAR 및 TAF 보고).

지도상에서 검색 가능한 기상관측소가 노란 점과 빨간 점으로 표시되어 있습니다.

기상관측소 명을 보려면 표시 위로 마우스를 이동하세요.

날씨 관측과 예보를 보려면 클릭하세요.

지도 변경 : 확대하려면 엑스 표시가 있는 녹색 버튼, 축소하려면 빼기 표시가 있는 녹색 버튼, 다음 페이지의 지도를 보려면 녹색 화살표를 클릭하세요.


METAR-TAF: